Wiley Ford, West Virginia
Current Conditions -  °F | °C
As of 6:21 AM on Monday 22 Dec 2014 (Local Time) from KCBE Reporting Station
Clear Clear  
Wind Chill: 27°   Ceiling: Unl
Heat Index: 27°   Visibility: 5mi
Dew Point: 25°   Wind: 0mph
Humidity: 93%   Direction: NA
Pressure: 30.28"   Gusts: NA
Location:  39.62°N, 78.77°W
Report Text: KCBE 221121Z AUTO 00000KT 5SM CLR M03/M04 A3028 RMK AO1
Loading
Personal Weather Stations






























Interactive Weather Map New forecast layout! Learn more

10-Day Weather Forecast

Advertisements
Track Severe Weather on mobile